AirNav   Pilot Hours Calculator
 
 1011 users online  

AZ79 Airscrew Performance Flightpark Ultralight Flightpark
Glendale, Arizona, USA

GOING TO GLENDALE?


FAA INFORMATION EFFECTIVE 02 DECEMBER 2021

Location

FAA Identifier: AZ79
Lat/Long: 33-31-48.1480N 112-12-59.5530W
33-31.802467N 112-12.992550W
33.5300411,-112.2165425
(estimated)
Elevation: 1112 ft. / 339 m (estimated)
Variation: 13E (1985)
From city: 2 miles W of GLENDALE, AZ
Time zone: UTC -7 (year round; does not observe DST)
Zip code: 85303

Ultralight Flight Park Operations

Ultralight Flight Park use: Private use. Permission required prior to landing
Activation date: 07/1984
Control tower: no
ARTCC: ALBUQUERQUE CENTER
FSS: PRESCOTT FLIGHT SERVICE STATION
Attendance: UNATNDD
Segmented circle: no

Ultralight Flight Park Communications

WX AWOS-3 at GEU (4 nm W): PHONE 623-877-8609
WX ASOS at DVT (12 nm NE): 126.5 (623-587-7764)
WX ASOS at PHX (12 nm SE): PHONE 602-231-8557
WX ASOS at SDL (16 nm E): PHONE 480-483-3049

Nearby radio navigation aids

VOR radial/distance  VOR name  Freq  Var
PXRr283/13.6PHOENIX VORTAC115.6012E
BXKr067/30.8BUCKEYE VORTAC110.6014E
IWAr283/31.4WILLIE VORTAC113.3013E

Ultralight Flight Park Services

Runway Information

Runway 17U/35U

Dimensions: 375 x 60 ft. / 114 x 18 m
Surface: turf
RUNWAY 17U  RUNWAY 35U
Traffic pattern: leftleft

Ultralight Flight Park Ownership and Management from official FAA records

Ownership: Privately-owned
Owner: STEVE BEATTY
7308 W. GRIFFIN LN
GLENDALE, AZ 85303
Phone 623-842-3902
Manager: JANICE ALI
7308 W. GRIFFIN LN
GLENDALE, AZ 85303
Phone 602-319-3359

Additional Remarks

FOR CD CTC PHOENIX APCH AT 602-306-2565.

Instrument Procedures

There are no published instrument procedures at AZ79.

Some nearby airports with instrument procedures:

KGEU - Glendale Municipal Airport (4 nm W)
KLUF - Luke Air Force Base (8 nm W)
KGYR - Phoenix Goodyear Airport (10 nm SW)
KDVT - Phoenix Deer Valley Airport (12 nm NE)
KPHX - Phoenix Sky Harbor International Airport (12 nm SE)
KSDL - Scottsdale Airport (16 nm E)
 
Loc | Ops | Rwys | IFR | FBO | Links
Com | Nav | Svcs | Stats | Notes
Area around AZ79 (Airscrew Performance Flightpark Ultralight Flightpark)
 
Road maps at: MapQuest Bing Google
 
Aerial photo
WARNING: Photo may not be current or correct
Aerial photo of AZ79 (Airscrew Performance Flightpark Ultralight Flightpark)
Photo by Steve Beatty
Photo taken 20-Feb-2005

Do you have a better or more recent aerial photo of Airscrew Performance Flightpark Ultralight Flightpark that you would like to share? If so, please send us your photo.

 
Sectional chart

 
Airport distance calculator
Flying to Airscrew Performance Flightpark Ultralight Flightpark? Find the distance to fly.

From to AZ79

Sunrise and sunset
Times for 04-Dec-2021
 Local
(UTC-7)
 Zulu
(UTC)
Morning civil twilight06:5113:51
Sunrise07:1914:19
Sunset17:2000:20
Evening civil twilight17:4700:47

Current date and time
Zulu (UTC)  04-Dec-2021 14:53:58
Local (UTC-7)  04-Dec-2021 07:53:58
 
METAR
KGEU 
4nm W 
041351Z 00000KT 10SM SKC 11/01 A3009 RMK FIRST
KLUF 
8nm W 
041358Z AUTO 36003KT 10SM CLR 09/01 A3007 RMK AO2 SLP179 T00880012 $
KGYR 
10nm SW 
041347Z 08004KT 10SM FEW200 11/01 A3008
KPHX 
10nm SE 
041351Z 11003KT 10SM FEW200 12/02 A3006 RMK AO2 SLP169 T01220022
KDVT 
12nm NE 
041353Z 00000KT 10SM CLR 11/01 A3008 RMK AO2 SLP173 T01110011
KSDL 
16nm E 
041353Z 00000KT 10SM CLR 11/03 A3008 RMK AO2 SLP174 T01110033 $
TAF
KLUF 
8nm W 
032328Z 0323/0502 VRB06KT 9999 SKC QNH2995INS TX26/0323Z TN10/0413Z LAST NO AMDS AFT 0323 NEXT 0612
KPHX 
10nm SE 
040520Z 0406/0512 VRB04KT P6SM SKC FM041100 11004KT P6SM FEW100 FEW250 FM042100 28004KT P6SM FEW100 FEW250 FM050300 VRB04KT P6SM SKC FM050800 11004KT P6SM SKC
KDVT 
12nm NE 
041130Z 0412/0512 09005KT P6SM SKC FM041800 18004KT P6SM SKC FM050300 07004KT P6SM SKC
KSDL 
16nm E 
040520Z 0406/0506 VRB05KT P6SM SKC FM042000 28004KT P6SM FEW090 FEW250 FM050300 VRB04KT P6SM SKC
NOTAMs
Click for the latest NOTAMs
NOTAMs are issued by the DoD/FAA and will open in a separate window not controlled by AirNav.

 

 
 

Would you like to see your business listed on this page?

 If your business provides an interesting product or service to pilots, flight crews, aircraft, or users of the Airscrew Performance Flightpark Ultralight Flightpark, you should consider listing it here.  To start the listing process, click on the button below
 
Add a business
 

Other Pages about Airscrew Performance Flightpark Ultralight Flightpark

Update a link
 
Copyright © AirNav, LLC. All rights reserved. Privacy Policy  Contact